createdAt,value
2017-10-08T00:01:09.296Z,99.61
2017-10-08T00:03:44.601Z,99.47
2017-10-08T00:06:19.254Z,99.51
2017-10-08T00:08:53.989Z,99.35
2017-10-08T00:11:29.393Z,99.45
2017-10-08T00:14:04.152Z,99.28
2017-10-08T00:16:38.875Z,99.19
2017-10-08T00:19:13.508Z,99.08
2017-10-08T00:21:48.216Z,99.08
2017-10-08T00:24:22.912Z,99.16
2017-10-08T00:26:57.359Z,99.09
2017-10-08T00:29:32.015Z,98.88
2017-10-08T00:32:06.903Z,98.98
2017-10-08T00:34:42.662Z,98.80
2017-10-08T00:37:17.285Z,98.81
2017-10-08T00:39:52.051Z,98.53
2017-10-08T00:42:26.892Z,98.50
2017-10-08T00:45:01.328Z,98.55
2017-10-08T00:47:36.016Z,98.78
2017-10-08T00:50:10.949Z,98.67
2017-10-08T00:52:45.303Z,98.78
2017-10-08T00:55:19.880Z,98.62
2017-10-08T00:57:54.559Z,98.43
2017-10-08T01:00:29.064Z,98.41
2017-10-08T01:03:03.896Z,98.60
2017-10-08T01:05:39.864Z,98.71
2017-10-08T01:08:14.547Z,98.58
2017-10-08T01:10:49.161Z,98.27
2017-10-08T01:13:24.092Z,98.32
2017-10-08T01:15:58.836Z,98.38
2017-10-08T01:18:33.579Z,98.27
2017-10-08T01:21:08.291Z,98.08
2017-10-08T01:23:43.020Z,98.06
2017-10-08T01:26:17.520Z,97.99
2017-10-08T01:28:52.347Z,97.76
2017-10-08T01:31:27.107Z,97.67
2017-10-08T01:34:01.716Z,97.68
2017-10-08T01:36:36.427Z,97.59
2017-10-08T01:39:11.139Z,97.56
2017-10-08T01:41:46.094Z,97.72
2017-10-08T01:44:20.647Z,97.81
2017-10-08T01:46:55.524Z,97.90
2017-10-08T01:49:30.647Z,98.09
2017-10-08T01:52:05.423Z,97.64
2017-10-08T01:54:40.180Z,97.35
2017-10-08T01:57:14.875Z,97.31
2017-10-08T01:59:49.747Z,97.59
2017-10-08T02:02:24.583Z,97.68
2017-10-08T02:04:59.020Z,97.33
2017-10-08T02:07:34.346Z,97.47
2017-10-08T02:10:09.055Z,97.38
2017-10-08T02:12:43.804Z,97.44
2017-10-08T02:15:19.392Z,97.20
2017-10-08T02:17:54.202Z,97.14
2017-10-08T02:20:28.810Z,97.40
2017-10-08T02:23:03.559Z,97.47
2017-10-08T02:25:38.271Z,97.59
2017-10-08T02:28:12.991Z,97.75
2017-10-08T02:30:47.618Z,97.76
2017-10-08T02:33:22.363Z,97.65
2017-10-08T02:35:57.106Z,97.69
2017-10-08T02:38:31.804Z,97.51
2017-10-08T02:41:06.643Z,97.56
2017-10-08T02:43:41.340Z,97.49
2017-10-08T02:46:16.219Z,97.36
2017-10-08T02:48:51.024Z,97.22
2017-10-08T02:51:25.795Z,97.63
2017-10-08T02:54:00.628Z,97.26
2017-10-08T02:56:35.544Z,97.21
2017-10-08T02:59:10.136Z,97.18
2017-10-08T03:01:44.902Z,97.01
2017-10-08T03:04:19.744Z,97.21
2017-10-08T03:06:54.552Z,97.32
2017-10-08T03:09:29.471Z,97.31
2017-10-08T03:12:04.179Z,97.49
2017-10-08T03:14:39.751Z,97.25
2017-10-08T03:17:14.464Z,97.21
2017-10-08T03:19:49.407Z,97.41
2017-10-08T03:22:24.035Z,97.74
2017-10-08T03:24:58.903Z,98.07
2017-10-08T03:27:33.257Z,98.35
2017-10-08T03:30:08.323Z,98.70
2017-10-08T03:32:43.036Z,98.98
2017-10-08T03:35:18.239Z,98.89
2017-10-08T03:37:53.059Z,98.78
2017-10-08T03:40:27.863Z,98.97
2017-10-08T03:43:02.371Z,98.92
2017-10-08T03:45:37.323Z,99.05
2017-10-08T03:48:12.256Z,99.04
2017-10-08T03:50:46.874Z,98.81
2017-10-08T03:53:21.584Z,98.74
2017-10-08T03:55:55.888Z,98.40
2017-10-08T03:58:30.895Z,98.39
2017-10-08T04:01:05.612Z,98.37
2017-10-08T04:03:40.111Z,97.98
2017-10-08T04:06:15.041Z,97.98
2017-10-08T04:08:50.463Z,98.23
2017-10-08T04:11:25.286Z,98.10
2017-10-08T04:13:59.927Z,97.75
2017-10-08T04:16:34.630Z,97.60
2017-10-08T04:19:09.332Z,97.83
2017-10-08T04:21:44.340Z,97.77
2017-10-08T04:24:19.152Z,97.16
2017-10-08T04:26:53.912Z,97.20
2017-10-08T04:29:28.657Z,97.45
2017-10-08T04:32:03.612Z,97.81
2017-10-08T04:34:38.407Z,98.12
2017-10-08T04:37:12.943Z,98.34
2017-10-08T04:39:47.720Z,98.69
2017-10-08T04:42:22.476Z,99.07
2017-10-08T04:44:58.304Z,99.23
2017-10-08T04:47:32.816Z,98.82
2017-10-08T04:50:07.579Z,98.52
2017-10-08T04:52:42.505Z,98.52
2017-10-08T04:55:18.096Z,98.38
2017-10-08T04:57:53.517Z,98.53
2017-10-08T05:00:28.515Z,98.50
2017-10-08T05:03:03.440Z,98.49
2017-10-08T05:05:38.156Z,98.63
2017-10-08T05:08:12.791Z,99.01
2017-10-08T05:10:47.556Z,99.30
2017-10-08T05:13:21.939Z,99.39
2017-10-08T05:15:56.444Z,99.44
2017-10-08T05:18:31.435Z,99.67
2017-10-08T05:21:06.052Z,99.38
2017-10-08T05:23:41.835Z,99.25
2017-10-08T05:26:16.480Z,99.35
2017-10-08T05:28:51.127Z,99.48
2017-10-08T05:31:25.848Z,99.76
2017-10-08T05:34:01.107Z,100.00
2017-10-08T05:36:36.231Z,100.00
2017-10-08T05:39:10.800Z,100.00
2017-10-08T05:41:45.431Z,100.00
2017-10-08T05:44:20.280Z,100.00
2017-10-08T05:46:54.927Z,100.00
2017-10-08T05:49:29.559Z,100.00
2017-10-08T05:52:04.339Z,100.00
2017-10-08T05:54:39.063Z,100.00
2017-10-08T05:57:13.555Z,100.00
2017-10-08T05:59:48.987Z,100.00
2017-10-08T06:02:23.627Z,100.00
2017-10-08T06:04:58.296Z,100.00
2017-10-08T06:07:33.416Z,100.00
2017-10-08T06:10:08.440Z,100.00
2017-10-08T06:12:43.491Z,100.00
2017-10-08T06:15:17.929Z,99.25
2017-10-08T06:17:52.465Z,98.52
2017-10-08T06:20:27.273Z,98.52
2017-10-08T06:23:02.004Z,98.20
2017-10-08T06:25:36.599Z,98.27
2017-10-08T06:28:11.231Z,98.06
2017-10-08T06:30:46.011Z,97.88
2017-10-08T06:33:20.715Z,98.06
2017-10-08T06:35:55.420Z,98.04
2017-10-08T06:38:30.172Z,97.88
2017-10-08T06:41:04.920Z,98.00
2017-10-08T06:43:39.836Z,98.24
2017-10-08T06:46:14.736Z,98.55
2017-10-08T06:48:49.644Z,98.82
2017-10-08T06:51:24.284Z,99.07
2017-10-08T06:53:59.176Z,98.89
2017-10-08T06:56:33.848Z,98.72
2017-10-08T06:59:08.754Z,98.90
2017-10-08T07:01:43.367Z,98.96
2017-10-08T07:04:18.312Z,98.94
2017-10-08T07:06:54.248Z,98.97
2017-10-08T07:09:29.068Z,99.03
2017-10-08T07:12:04.524Z,98.63
2017-10-08T07:14:39.651Z,98.40
2017-10-08T07:17:14.632Z,98.15
2017-10-08T07:19:49.459Z,97.79
2017-10-08T07:22:24.068Z,97.96
2017-10-08T07:24:58.964Z,97.89
2017-10-08T07:27:33.851Z,97.72
2017-10-08T07:30:09.025Z,97.31
2017-10-08T07:32:44.183Z,97.07
2017-10-08T07:35:18.702Z,97.18
2017-10-08T07:37:53.312Z,96.79
2017-10-08T07:40:27.956Z,95.61
2017-10-08T07:43:02.675Z,95.47
2017-10-08T07:45:37.407Z,95.46
2017-10-08T07:48:12.551Z,95.56
2017-10-08T07:50:47.463Z,94.72
2017-10-08T07:53:21.676Z,94.64
2017-10-08T07:55:56.819Z,94.14
2017-10-08T07:58:31.767Z,93.26
2017-10-08T08:01:06.484Z,92.69
2017-10-08T08:03:41.180Z,92.85
2017-10-08T08:06:15.401Z,92.65
2017-10-08T08:08:49.811Z,91.16
2017-10-08T08:11:24.615Z,91.52
2017-10-08T08:13:59.643Z,91.33
2017-10-08T08:16:34.323Z,89.90
2017-10-08T08:19:09.047Z,90.30
2017-10-08T08:21:43.630Z,88.86
2017-10-08T08:24:18.460Z,88.32
2017-10-08T08:26:53.248Z,88.17
2017-10-08T08:29:28.008Z,87.54
2017-10-08T08:32:02.719Z,84.38
2017-10-08T08:34:37.788Z,82.74
2017-10-08T08:37:12.524Z,84.63
2017-10-08T08:39:47.272Z,83.70
2017-10-08T08:42:21.989Z,80.96
2017-10-08T08:44:56.828Z,81.24
2017-10-08T08:47:31.472Z,80.06
2017-10-08T08:50:06.248Z,79.08
2017-10-08T08:52:41.183Z,78.04
2017-10-08T08:55:15.975Z,78.60
2017-10-08T08:57:50.691Z,77.66
2017-10-08T09:00:26.608Z,77.04
2017-10-08T09:03:01.224Z,78.53
2017-10-08T09:05:36.016Z,75.28
2017-10-08T09:08:10.728Z,73.39
2017-10-08T09:10:45.275Z,73.65
2017-10-08T09:13:20.207Z,77.16
2017-10-08T09:15:54.923Z,73.16
2017-10-08T09:18:29.601Z,74.36
2017-10-08T09:21:04.501Z,70.19
2017-10-08T09:23:39.143Z,70.00
2017-10-08T09:26:14.007Z,70.02
2017-10-08T09:28:48.719Z,71.78
2017-10-08T09:31:23.772Z,71.30
2017-10-08T09:33:58.607Z,73.27
2017-10-08T09:36:33.739Z,73.13
2017-10-08T09:39:08.463Z,72.95
2017-10-08T09:41:43.111Z,71.68
2017-10-08T09:44:18.120Z,70.44
2017-10-08T09:46:52.865Z,70.93
2017-10-08T09:49:27.651Z,69.19
2017-10-08T09:52:02.380Z,68.97
2017-10-08T09:54:37.209Z,66.75
2017-10-08T09:57:11.908Z,63.99
2017-10-08T09:59:46.528Z,66.89
2017-10-08T10:02:21.120Z,65.74
2017-10-08T10:04:55.881Z,66.92
2017-10-08T10:07:30.670Z,66.77
2017-10-08T10:10:05.380Z,64.54
2017-10-08T10:12:39.904Z,65.94
2017-10-08T10:15:14.764Z,65.69
2017-10-08T10:17:49.514Z,66.59
2017-10-08T10:20:24.208Z,68.60
2017-10-08T10:22:59.139Z,66.02
2017-10-08T10:27:55.693Z,66.07
2017-10-08T10:30:30.489Z,68.61
2017-10-08T10:33:06.080Z,68.50
2017-10-08T10:35:40.691Z,68.32
2017-10-08T10:38:15.303Z,69.18
2017-10-08T10:40:49.796Z,69.65
2017-10-08T10:43:24.436Z,70.92
2017-10-08T10:45:59.070Z,69.68
2017-10-08T10:48:33.759Z,70.21
2017-10-08T10:51:08.196Z,71.16
2017-10-08T10:53:42.895Z,70.20
2017-10-08T10:56:17.504Z,69.71
2017-10-08T10:58:52.147Z,68.97
2017-10-08T11:01:26.874Z,69.55
2017-10-08T11:04:01.568Z,68.75
2017-10-08T11:06:36.307Z,67.86
2017-10-08T11:09:10.876Z,69.93
2017-10-08T11:11:45.589Z,69.50
2017-10-08T11:14:20.197Z,69.73
2017-10-08T11:16:55.011Z,68.99
2017-10-08T11:19:29.772Z,68.87
2017-10-08T11:22:04.488Z,70.67
2017-10-08T11:24:39.111Z,68.84
2017-10-08T11:27:13.831Z,69.53
2017-10-08T11:29:50.104Z,71.60
2017-10-08T11:32:25.135Z,70.40
2017-10-08T11:34:59.815Z,68.80
2017-10-08T11:37:34.373Z,66.57
2017-10-08T11:40:09.023Z,67.47
2017-10-08T11:42:43.729Z,65.90
2017-10-08T11:45:19.087Z,63.18
2017-10-08T11:47:54.014Z,61.97
2017-10-08T11:50:29.548Z,63.00
2017-10-08T11:53:04.293Z,60.79
2017-10-08T11:55:39.371Z,60.91
2017-10-08T11:58:14.195Z,62.84
2017-10-08T12:00:49.101Z,63.14
2017-10-08T12:03:24.017Z,61.63
2017-10-08T12:05:58.627Z,60.00
2017-10-08T12:08:33.183Z,58.55
2017-10-08T12:11:08.011Z,58.42
2017-10-08T12:13:42.723Z,59.07
2017-10-08T12:16:17.519Z,58.12
2017-10-08T12:18:52.203Z,58.24
2017-10-08T12:21:26.828Z,57.24
2017-10-08T12:24:01.504Z,57.45
2017-10-08T12:26:36.095Z,58.87
2017-10-08T12:29:10.728Z,60.10
2017-10-08T12:31:45.441Z,59.80
2017-10-08T12:34:20.368Z,58.51
2017-10-08T12:36:55.195Z,61.12
2017-10-08T12:39:29.968Z,59.96
2017-10-08T12:42:04.975Z,57.17
2017-10-08T12:44:40.060Z,57.50
2017-10-08T12:47:14.807Z,58.30
2017-10-08T12:49:49.419Z,59.57
2017-10-08T12:52:24.067Z,59.22
2017-10-08T12:54:58.936Z,58.98
2017-10-08T12:57:33.576Z,58.49
2017-10-08T13:00:08.280Z,59.00
2017-10-08T13:02:42.911Z,60.33
2017-10-08T13:05:18.408Z,62.04
2017-10-08T13:07:53.560Z,61.09
2017-10-08T13:10:28.294Z,63.53
2017-10-08T13:13:03.091Z,67.15
2017-10-08T13:15:37.822Z,70.61
2017-10-08T13:18:12.636Z,72.30
2017-10-08T13:20:47.413Z,74.34
2017-10-08T13:23:22.235Z,75.87
2017-10-08T13:25:57.063Z,76.02
2017-10-08T13:28:31.620Z,76.62
2017-10-08T13:31:06.181Z,77.11
2017-10-08T13:33:40.583Z,77.14
2017-10-08T13:36:15.684Z,77.07
2017-10-08T13:38:50.482Z,77.27
2017-10-08T13:41:25.288Z,77.87
2017-10-08T13:44:00.035Z,76.88
2017-10-08T13:46:34.820Z,76.91
2017-10-08T13:49:09.544Z,76.32
2017-10-08T13:51:44.146Z,75.45
2017-10-08T13:54:18.739Z,72.84
2017-10-08T13:56:53.560Z,73.43
2017-10-08T13:59:28.584Z,73.87
2017-10-08T14:02:03.320Z,71.82
2017-10-08T14:04:38.148Z,70.83
2017-10-08T14:07:12.948Z,69.80
2017-10-08T14:09:47.720Z,67.99
2017-10-08T14:12:22.431Z,65.26
2017-10-08T14:14:58.101Z,64.71
2017-10-08T14:17:32.788Z,66.59
2017-10-08T14:20:07.516Z,66.39
2017-10-08T14:22:42.276Z,65.99
2017-10-08T14:25:17.443Z,66.33
2017-10-08T14:27:52.748Z,66.40
2017-10-08T14:30:27.499Z,68.75
2017-10-08T14:33:02.100Z,69.68
2017-10-08T14:35:36.878Z,70.80
2017-10-08T14:38:11.464Z,69.42
2017-10-08T14:40:47.179Z,71.32
2017-10-08T14:43:21.791Z,71.86
2017-10-08T14:45:56.644Z,72.51
2017-10-08T14:48:31.423Z,72.73
2017-10-08T14:51:06.155Z,70.62
2017-10-08T14:53:41.036Z,71.46
2017-10-08T14:56:15.580Z,71.39
2017-10-08T14:58:50.296Z,71.12
2017-10-08T15:01:24.734Z,71.83
2017-10-08T15:03:59.392Z,73.31
2017-10-08T15:06:34.299Z,70.60
2017-10-08T15:09:08.866Z,71.75
2017-10-08T15:11:44.015Z,71.75
2017-10-08T15:14:18.996Z,72.24
2017-10-08T15:16:53.695Z,70.20
2017-10-08T15:19:28.438Z,70.30
2017-10-08T15:22:03.079Z,72.12
2017-10-08T15:24:37.779Z,70.78
2017-10-08T15:27:12.528Z,70.70
2017-10-08T15:29:47.259Z,71.48
2017-10-08T15:32:22.077Z,71.71
2017-10-08T15:34:57.655Z,72.16
2017-10-08T15:37:32.564Z,72.08
2017-10-08T15:40:07.274Z,72.50
2017-10-08T15:42:42.023Z,73.38
2017-10-08T15:45:16.796Z,71.99
2017-10-08T15:47:51.272Z,69.79
2017-10-08T15:50:25.492Z,69.34
2017-10-08T15:53:00.603Z,69.37
2017-10-08T15:55:35.260Z,71.57
2017-10-08T15:58:09.662Z,72.75
2017-10-08T16:00:44.719Z,71.32
2017-10-08T16:03:19.548Z,70.13
2017-10-08T16:05:54.543Z,70.96
2017-10-08T16:08:29.304Z,71.92
2017-10-08T16:11:04.028Z,72.12
2017-10-08T16:13:39.049Z,72.50
2017-10-08T16:16:13.839Z,72.75
2017-10-08T16:18:48.468Z,73.39
2017-10-08T16:21:23.248Z,73.50
2017-10-08T16:23:58.799Z,75.20
2017-10-08T16:26:33.423Z,74.28
2017-10-08T16:29:08.152Z,73.56
2017-10-08T16:31:43.264Z,72.10
2017-10-08T16:34:18.306Z,71.49
2017-10-08T16:36:53.103Z,72.70
2017-10-08T16:39:27.703Z,73.00
2017-10-08T16:42:02.216Z,72.21
2017-10-08T16:44:36.752Z,72.93
2017-10-08T16:47:11.647Z,74.65
2017-10-08T16:49:46.403Z,74.05
2017-10-08T16:52:21.139Z,73.88
2017-10-08T16:54:55.595Z,73.57
2017-10-08T16:57:30.283Z,73.30
2017-10-08T17:00:04.659Z,73.79
2017-10-08T17:02:39.578Z,74.23
2017-10-08T17:05:14.017Z,74.72
2017-10-08T17:07:49.320Z,73.81
2017-10-08T17:10:23.935Z,73.03
2017-10-08T17:12:58.763Z,73.78
2017-10-08T17:15:33.367Z,74.65
2017-10-08T17:18:08.353Z,74.72
2017-10-08T17:20:43.332Z,74.90
2017-10-08T17:23:17.768Z,75.26
2017-10-08T17:25:52.459Z,75.72
2017-10-08T17:28:27.075Z,76.48
2017-10-08T17:31:02.096Z,76.77
2017-10-08T17:33:36.920Z,77.23
2017-10-08T17:36:11.736Z,77.46
2017-10-08T17:38:47.559Z,77.58
2017-10-08T17:41:22.147Z,77.79
2017-10-08T17:43:56.972Z,78.15
2017-10-08T17:46:31.530Z,78.64
2017-10-08T17:49:08.372Z,78.80
2017-10-08T17:51:42.963Z,79.12
2017-10-08T17:54:17.788Z,79.47
2017-10-08T17:56:52.291Z,79.73
2017-10-08T17:59:27.039Z,80.05
2017-10-08T18:02:01.359Z,80.46
2017-10-08T18:04:36.015Z,80.36
2017-10-08T18:07:10.870Z,80.67
2017-10-08T18:09:45.620Z,80.92
2017-10-08T18:12:20.180Z,81.00
2017-10-08T18:14:56.836Z,81.23
2017-10-08T18:17:31.283Z,81.28
2017-10-08T18:20:06.107Z,81.36
2017-10-08T18:22:40.796Z,81.22
2017-10-08T18:25:15.599Z,81.43
2017-10-08T18:27:50.235Z,81.83
2017-10-08T18:30:24.636Z,82.00
2017-10-08T18:32:59.410Z,82.12
2017-10-08T18:35:34.171Z,82.13
2017-10-08T18:38:09.567Z,82.43
2017-10-08T18:40:44.585Z,82.54
2017-10-08T18:43:19.360Z,82.73
2017-10-08T18:45:54.093Z,82.85
2017-10-08T18:48:28.840Z,82.92
2017-10-08T18:51:03.454Z,82.92
2017-10-08T18:53:38.164Z,82.93
2017-10-08T18:56:12.852Z,82.82
2017-10-08T18:58:47.599Z,82.82
2017-10-08T19:01:22.451Z,83.04
2017-10-08T19:03:57.357Z,83.29
2017-10-08T19:06:33.148Z,83.54
2017-10-08T19:09:07.759Z,83.91
2017-10-08T19:11:42.463Z,84.13
2017-10-08T19:14:17.143Z,84.18
2017-10-08T19:16:51.846Z,84.24
2017-10-08T19:19:26.671Z,84.25
2017-10-08T19:22:01.392Z,84.38
2017-10-08T19:24:36.032Z,84.64
2017-10-08T19:27:14.296Z,84.86
2017-10-08T19:29:50.063Z,84.99
2017-10-08T19:32:24.682Z,84.95
2017-10-08T19:34:59.612Z,85.00
2017-10-08T19:37:34.448Z,85.04
2017-10-08T19:40:09.358Z,85.07
2017-10-08T19:42:44.231Z,84.96
2017-10-08T19:45:19.482Z,85.16
2017-10-08T19:47:54.860Z,85.12
2017-10-08T19:50:30.490Z,85.10
2017-10-08T19:53:05.291Z,85.08
2017-10-08T19:55:39.815Z,85.13
2017-10-08T19:58:14.543Z,85.14
2017-10-08T20:00:49.391Z,85.37
2017-10-08T20:03:24.204Z,85.46
2017-10-08T20:05:58.637Z,85.50
2017-10-08T20:08:34.799Z,85.44
2017-10-08T20:11:09.401Z,85.78
2017-10-08T20:13:44.235Z,86.50
2017-10-08T20:16:19.052Z,86.68
2017-10-08T20:18:53.776Z,87.12
2017-10-08T20:21:28.619Z,87.16
2017-10-08T20:24:03.456Z,87.22
2017-10-08T20:26:38.168Z,87.34
2017-10-08T20:29:12.782Z,87.48
2017-10-08T20:31:47.697Z,87.69
2017-10-08T20:34:23.384Z,87.85
2017-10-08T20:36:57.919Z,87.82
2017-10-08T20:39:32.799Z,87.83
2017-10-08T20:42:07.532Z,87.81
2017-10-08T20:44:42.315Z,87.65
2017-10-08T20:47:16.986Z,87.62
2017-10-08T20:49:51.999Z,87.64
2017-10-08T20:52:26.975Z,87.58
2017-10-08T20:55:01.639Z,87.51
2017-10-08T20:57:36.523Z,87.55
2017-10-08T21:00:11.255Z,87.83
2017-10-08T21:02:46.179Z,87.73
2017-10-08T21:05:20.758Z,87.42
2017-10-08T21:07:55.458Z,87.43
2017-10-08T21:10:30.636Z,87.65
2017-10-08T21:13:05.491Z,87.87
2017-10-08T21:15:40.024Z,87.94
2017-10-08T21:18:14.851Z,87.63
2017-10-08T21:20:49.604Z,87.61
2017-10-08T21:23:24.311Z,87.62
2017-10-08T21:25:58.720Z,87.80
2017-10-08T21:28:33.515Z,87.99
2017-10-08T21:31:08.103Z,88.10
2017-10-08T21:33:42.752Z,88.12
2017-10-08T21:36:18.472Z,88.16
2017-10-08T21:38:53.084Z,88.29
2017-10-08T21:41:27.775Z,88.37
2017-10-08T21:44:02.576Z,88.37
2017-10-08T21:46:37.264Z,88.56
2017-10-08T21:49:12.017Z,88.76
2017-10-08T21:51:46.592Z,89.02
2017-10-08T21:54:21.600Z,89.12
2017-10-08T21:56:56.071Z,89.40
2017-10-08T21:59:30.803Z,89.53
2017-10-08T22:02:05.675Z,89.80
2017-10-08T22:04:40.485Z,90.01
2017-10-08T22:07:15.135Z,90.20
2017-10-08T22:09:50.148Z,90.36
2017-10-08T22:12:24.748Z,90.64
2017-10-08T22:14:59.800Z,90.75
2017-10-08T22:17:34.576Z,90.72
2017-10-08T22:20:09.292Z,90.81
2017-10-08T22:22:45.028Z,90.92
2017-10-08T22:25:19.635Z,90.94
2017-10-08T22:27:54.568Z,90.88
2017-10-08T22:30:29.016Z,90.99
2017-10-08T22:33:03.749Z,91.01
2017-10-08T22:35:38.483Z,91.00
2017-10-08T22:38:13.248Z,90.96
2017-10-08T22:40:48.011Z,91.00
2017-10-08T22:43:22.861Z,91.00
2017-10-08T22:45:57.236Z,91.04
2017-10-08T22:48:32.151Z,90.98
2017-10-08T22:51:06.868Z,90.94
2017-10-08T22:53:41.528Z,90.93
2017-10-08T22:56:16.342Z,90.73
2017-10-08T22:58:51.748Z,90.61
2017-10-08T23:01:26.363Z,90.59
2017-10-08T23:04:00.988Z,90.72
2017-10-08T23:06:35.620Z,90.72
2017-10-08T23:09:10.249Z,90.77
2017-10-08T23:11:45.076Z,90.88
2017-10-08T23:14:19.599Z,90.79
2017-10-08T23:16:54.327Z,90.52
2017-10-08T23:19:29.060Z,90.59
2017-10-08T23:22:03.710Z,90.69
2017-10-08T23:24:38.360Z,90.89
2017-10-08T23:27:13.178Z,91.06
2017-10-08T23:29:47.972Z,91.16
2017-10-08T23:32:22.710Z,91.16
2017-10-08T23:34:57.680Z,91.07
2017-10-08T23:37:32.379Z,91.27
2017-10-08T23:40:07.183Z,91.37
2017-10-08T23:42:41.317Z,91.30
2017-10-08T23:45:17.064Z,91.28
2017-10-08T23:47:52.059Z,91.38
2017-10-08T23:50:26.723Z,91.46
2017-10-08T23:53:01.408Z,91.34
2017-10-08T23:55:36.152Z,91.68
2017-10-08T23:58:10.888Z,91.70
